sensor_id;sensor_type;location;lat;lon;timestamp;P1;durP1;ratioP1;P2;durP2;ratioP2
4359;SDS011;2193;47.980;7.660;2022-07-01T00:00:03;4.50;;;1.17;;
4359;SDS011;2193;47.980;7.660;2022-07-01T00:02:29;2.30;;;1.10;;
4359;SDS011;2193;47.980;7.660;2022-07-01T00:04:54;1.43;;;1.03;;
4359;SDS011;2193;47.980;7.660;2022-07-01T00:07:19;2.47;;;1.30;;
4359;SDS011;2193;47.980;7.660;2022-07-01T00:09:44;1.90;;;1.30;;
4359;SDS011;2193;47.980;7.660;2022-07-01T00:12:09;2.37;;;1.37;;
4359;SDS011;2193;47.980;7.660;2022-07-01T00:14:35;1.50;;;1.20;;
4359;SDS011;2193;47.980;7.660;2022-07-01T00:17:00;1.77;;;1.20;;
4359;SDS011;2193;47.980;7.660;2022-07-01T00:19:25;2.60;;;1.10;;
4359;SDS011;2193;47.980;7.660;2022-07-01T00:21:52;4.17;;;1.30;;
4359;SDS011;2193;47.980;7.660;2022-07-01T00:24:17;2.97;;;1.13;;
4359;SDS011;2193;47.980;7.660;2022-07-01T00:26:43;2.13;;;1.10;;
4359;SDS011;2193;47.980;7.660;2022-07-01T00:29:08;3.90;;;1.03;;
4359;SDS011;2193;47.980;7.660;2022-07-01T00:31:33;3.40;;;1.10;;
4359;SDS011;2193;47.980;7.660;2022-07-01T00:33:58;4.87;;;1.43;;
4359;SDS011;2193;47.980;7.660;2022-07-01T00:36:24;2.13;;;1.20;;
4359;SDS011;2193;47.980;7.660;2022-07-01T00:38:49;2.00;;;1.10;;
4359;SDS011;2193;47.980;7.660;2022-07-01T00:41:14;7.00;;;1.10;;
4359;SDS011;2193;47.980;7.660;2022-07-01T00:43:41;5.10;;;1.20;;
4359;SDS011;2193;47.980;7.660;2022-07-01T00:46:06;2.00;;;0.90;;
4359;SDS011;2193;47.980;7.660;2022-07-01T00:48:32;2.47;;;1.13;;
4359;SDS011;2193;47.980;7.660;2022-07-01T00:50:58;3.93;;;1.30;;
4359;SDS011;2193;47.980;7.660;2022-07-01T00:53:23;3.73;;;1.30;;
4359;SDS011;2193;47.980;7.660;2022-07-01T00:55:48;3.23;;;1.00;;
4359;SDS011;2193;47.980;7.660;2022-07-01T00:58:14;5.77;;;0.97;;
4359;SDS011;2193;47.980;7.660;2022-07-01T01:00:39;2.33;;;1.00;;
4359;SDS011;2193;47.980;7.660;2022-07-01T01:03:05;6.83;;;1.13;;
4359;SDS011;2193;47.980;7.660;2022-07-01T01:05:31;10.20;;;1.43;;
4359;SDS011;2193;47.980;7.660;2022-07-01T01:07:56;6.03;;;1.17;;
4359;SDS011;2193;47.980;7.660;2022-07-01T01:10:21;3.63;;;1.27;;
4359;SDS011;2193;47.980;7.660;2022-07-01T01:12:48;5.20;;;1.30;;
4359;SDS011;2193;47.980;7.660;2022-07-01T01:15:17;5.20;;;1.10;;
4359;SDS011;2193;47.980;7.660;2022-07-01T01:17:57;3.63;;;1.13;;
4359;SDS011;2193;47.980;7.660;2022-07-01T01:20:23;3.23;;;1.00;;
4359;SDS011;2193;47.980;7.660;2022-07-01T01:22:48;5.17;;;1.10;;
4359;SDS011;2193;47.980;7.660;2022-07-01T01:25:16;4.73;;;1.17;;
4359;SDS011;2193;47.980;7.660;2022-07-01T01:27:42;2.90;;;1.30;;
4359;SDS011;2193;47.980;7.660;2022-07-01T01:30:08;2.37;;;0.90;;
4359;SDS011;2193;47.980;7.660;2022-07-01T01:32:34;3.37;;;1.00;;
4359;SDS011;2193;47.980;7.660;2022-07-01T01:34:59;2.63;;;0.90;;
4359;SDS011;2193;47.980;7.660;2022-07-01T01:37:24;7.20;;;1.67;;
4359;SDS011;2193;47.980;7.660;2022-07-01T01:39:49;3.53;;;1.33;;
4359;SDS011;2193;47.980;7.660;2022-07-01T01:42:14;2.20;;;0.97;;
4359;SDS011;2193;47.980;7.660;2022-07-01T01:44:40;4.73;;;1.03;;
4359;SDS011;2193;47.980;7.660;2022-07-01T01:47:05;3.30;;;1.10;;
4359;SDS011;2193;47.980;7.660;2022-07-01T01:49:31;2.40;;;1.33;;
4359;SDS011;2193;47.980;7.660;2022-07-01T01:51:56;8.67;;;1.43;;
4359;SDS011;2193;47.980;7.660;2022-07-01T01:54:22;1.80;;;1.20;;
4359;SDS011;2193;47.980;7.660;2022-07-01T01:56:47;8.07;;;1.43;;
4359;SDS011;2193;47.980;7.660;2022-07-01T01:59:13;7.63;;;1.30;;
4359;SDS011;2193;47.980;7.660;2022-07-01T02:01:38;3.13;;;1.40;;
4359;SDS011;2193;47.980;7.660;2022-07-01T02:04:03;7.33;;;1.83;;
4359;SDS011;2193;47.980;7.660;2022-07-01T02:06:28;3.20;;;1.50;;
4359;SDS011;2193;47.980;7.660;2022-07-01T02:08:53;2.57;;;1.13;;
4359;SDS011;2193;47.980;7.660;2022-07-01T02:11:19;3.17;;;1.23;;
4359;SDS011;2193;47.980;7.660;2022-07-01T02:13:44;8.97;;;1.33;;
4359;SDS011;2193;47.980;7.660;2022-07-01T02:16:09;7.83;;;1.63;;
4359;SDS011;2193;47.980;7.660;2022-07-01T02:18:34;5.50;;;1.37;;
4359;SDS011;2193;47.980;7.660;2022-07-01T02:20:59;2.93;;;1.17;;
4359;SDS011;2193;47.980;7.660;2022-07-01T02:23:25;5.43;;;1.10;;
4359;SDS011;2193;47.980;7.660;2022-07-01T02:25:50;3.13;;;1.40;;
4359;SDS011;2193;47.980;7.660;2022-07-01T02:28:15;6.00;;;1.20;;
4359;SDS011;2193;47.980;7.660;2022-07-01T02:30:41;7.50;;;1.80;;
4359;SDS011;2193;47.980;7.660;2022-07-01T02:33:06;5.97;;;1.03;;
4359;SDS011;2193;47.980;7.660;2022-07-01T02:35:35;1.70;;;1.30;;
4359;SDS011;2193;47.980;7.660;2022-07-01T02:38:01;3.40;;;1.10;;
4359;SDS011;2193;47.980;7.660;2022-07-01T02:40:26;2.00;;;1.20;;
4359;SDS011;2193;47.980;7.660;2022-07-01T02:42:52;1.70;;;1.10;;
4359;SDS011;2193;47.980;7.660;2022-07-01T02:45:17;2.90;;;1.20;;
4359;SDS011;2193;47.980;7.660;2022-07-01T02:47:42;5.83;;;1.50;;
4359;SDS011;2193;47.980;7.660;2022-07-01T02:50:08;7.87;;;2.27;;
4359;SDS011;2193;47.980;7.660;2022-07-01T02:52:34;10.83;;;2.60;;
4359;SDS011;2193;47.980;7.660;2022-07-01T02:55:00;4.50;;;1.97;;
4359;SDS011;2193;47.980;7.660;2022-07-01T02:57:26;11.43;;;2.43;;
4359;SDS011;2193;47.980;7.660;2022-07-01T02:59:51;14.27;;;3.30;;
4359;SDS011;2193;47.980;7.660;2022-07-01T03:02:17;13.30;;;2.03;;
4359;SDS011;2193;47.980;7.660;2022-07-01T03:04:43;6.63;;;2.37;;
4359;SDS011;2193;47.980;7.660;2022-07-01T03:07:08;12.37;;;2.50;;
4359;SDS011;2193;47.980;7.660;2022-07-01T03:09:33;9.27;;;3.07;;
4359;SDS011;2193;47.980;7.660;2022-07-01T03:11:59;7.33;;;2.70;;
4359;SDS011;2193;47.980;7.660;2022-07-01T03:14:24;10.00;;;1.87;;
4359;SDS011;2193;47.980;7.660;2022-07-01T03:16:49;3.67;;;1.97;;
4359;SDS011;2193;47.980;7.660;2022-07-01T03:19:14;2.60;;;2.07;;
4359;SDS011;2193;47.980;7.660;2022-07-01T03:21:40;3.67;;;1.70;;
4359;SDS011;2193;47.980;7.660;2022-07-01T03:24:06;3.87;;;1.80;;
4359;SDS011;2193;47.980;7.660;2022-07-01T03:26:31;4.73;;;1.90;;
4359;SDS011;2193;47.980;7.660;2022-07-01T03:28:56;8.40;;;1.70;;
4359;SDS011;2193;47.980;7.660;2022-07-01T03:31:21;4.33;;;2.97;;
4359;SDS011;2193;47.980;7.660;2022-07-01T03:33:46;6.87;;;1.70;;
4359;SDS011;2193;47.980;7.660;2022-07-01T03:36:12;3.40;;;1.70;;
4359;SDS011;2193;47.980;7.660;2022-07-01T03:38:38;6.50;;;1.73;;
4359;SDS011;2193;47.980;7.660;2022-07-01T03:41:03;1.57;;;1.47;;
4359;SDS011;2193;47.980;7.660;2022-07-01T03:43:28;3.77;;;2.93;;
4359;SDS011;2193;47.980;7.660;2022-07-01T03:45:54;8.47;;;2.90;;
4359;SDS011;2193;47.980;7.660;2022-07-01T03:48:19;4.50;;;3.10;;
4359;SDS011;2193;47.980;7.660;2022-07-01T03:50:44;7.57;;;3.30;;
4359;SDS011;2193;47.980;7.660;2022-07-01T03:53:09;3.57;;;3.20;;
4359;SDS011;2193;47.980;7.660;2022-07-01T03:55:53;5.77;;;3.83;;
4359;SDS011;2193;47.980;7.660;2022-07-01T03:58:18;6.70;;;4.10;;
4359;SDS011;2193;47.980;7.660;2022-07-01T04:00:44;3.20;;;2.90;;
4359;SDS011;2193;47.980;7.660;2022-07-01T04:03:09;9.40;;;3.00;;
4359;SDS011;2193;47.980;7.660;2022-07-01T04:05:35;6.17;;;3.00;;
4359;SDS011;2193;47.980;7.660;2022-07-01T04:08:04;4.20;;;2.50;;
4359;SDS011;2193;47.980;7.660;2022-07-01T04:10:30;4.20;;;2.37;;
4359;SDS011;2193;47.980;7.660;2022-07-01T04:12:57;3.57;;;2.00;;
4359;SDS011;2193;47.980;7.660;2022-07-01T04:15:22;5.87;;;1.70;;
4359;SDS011;2193;47.980;7.660;2022-07-01T04:17:47;3.77;;;1.70;;
4359;SDS011;2193;47.980;7.660;2022-07-01T04:20:12;5.47;;;1.80;;
4359;SDS011;2193;47.980;7.660;2022-07-01T04:22:37;4.53;;;1.20;;
4359;SDS011;2193;47.980;7.660;2022-07-01T04:25:03;2.10;;;1.30;;
4359;SDS011;2193;47.980;7.660;2022-07-01T04:27:29;1.20;;;1.10;;
4359;SDS011;2193;47.980;7.660;2022-07-01T04:29:54;4.10;;;1.10;;
4359;SDS011;2193;47.980;7.660;2022-07-01T04:32:19;1.30;;;1.20;;
4359;SDS011;2193;47.980;7.660;2022-07-01T04:34:45;1.37;;;1.20;;
4359;SDS011;2193;47.980;7.660;2022-07-01T04:37:10;1.60;;;1.50;;
4359;SDS011;2193;47.980;7.660;2022-07-01T04:39:35;3.23;;;1.43;;
4359;SDS011;2193;47.980;7.660;2022-07-01T04:42:00;6.40;;;1.57;;
4359;SDS011;2193;47.980;7.660;2022-07-01T04:44:32;2.93;;;1.33;;
4359;SDS011;2193;47.980;7.660;2022-07-01T04:46:58;1.90;;;1.30;;
4359;SDS011;2193;47.980;7.660;2022-07-01T04:49:23;3.20;;;1.50;;
4359;SDS011;2193;47.980;7.660;2022-07-01T04:51:49;1.37;;;1.27;;
4359;SDS011;2193;47.980;7.660;2022-07-01T04:54:14;6.23;;;2.20;;
4359;SDS011;2193;47.980;7.660;2022-07-01T04:56:39;2.23;;;1.83;;
4359;SDS011;2193;47.980;7.660;2022-07-01T04:59:05;2.57;;;1.57;;
4359;SDS011;2193;47.980;7.660;2022-07-01T05:01:30;1.77;;;1.20;;
4359;SDS011;2193;47.980;7.660;2022-07-01T05:03:56;1.33;;;1.23;;
4359;SDS011;2193;47.980;7.660;2022-07-01T05:06:21;2.40;;;1.50;;
4359;SDS011;2193;47.980;7.660;2022-07-01T05:08:46;2.27;;;1.27;;
4359;SDS011;2193;47.980;7.660;2022-07-01T05:11:11;8.17;;;1.70;;
4359;SDS011;2193;47.980;7.660;2022-07-01T05:13:36;5.20;;;1.10;;
4359;SDS011;2193;47.980;7.660;2022-07-01T05:16:02;2.63;;;1.40;;
4359;SDS011;2193;47.980;7.660;2022-07-01T05:18:27;4.10;;;1.20;;
4359;SDS011;2193;47.980;7.660;2022-07-01T05:21:11;3.10;;;0.90;;
4359;SDS011;2193;47.980;7.660;2022-07-01T05:23:55;1.10;;;1.00;;
4359;SDS011;2193;47.980;7.660;2022-07-01T05:26:21;1.47;;;0.80;;
4359;SDS011;2193;47.980;7.660;2022-07-01T05:28:46;2.40;;;1.10;;
4359;SDS011;2193;47.980;7.660;2022-07-01T05:31:11;0.80;;;0.80;;
4359;SDS011;2193;47.980;7.660;2022-07-01T05:33:37;1.17;;;0.80;;
4359;SDS011;2193;47.980;7.660;2022-07-01T05:36:02;1.00;;;0.80;;
4359;SDS011;2193;47.980;7.660;2022-07-01T05:38:27;2.30;;;0.80;;
4359;SDS011;2193;47.980;7.660;2022-07-01T05:40:52;2.73;;;1.20;;
4359;SDS011;2193;47.980;7.660;2022-07-01T05:43:18;1.80;;;0.90;;
4359;SDS011;2193;47.980;7.660;2022-07-01T05:45:43;2.33;;;0.83;;
4359;SDS011;2193;47.980;7.660;2022-07-01T05:48:09;2.60;;;0.77;;
4359;SDS011;2193;47.980;7.660;2022-07-01T05:50:34;2.47;;;0.90;;
4359;SDS011;2193;47.980;7.660;2022-07-01T05:52:59;2.20;;;1.47;;
4359;SDS011;2193;47.980;7.660;2022-07-01T05:55:24;0.83;;;0.80;;
4359;SDS011;2193;47.980;7.660;2022-07-01T05:57:50;2.50;;;0.93;;
4359;SDS011;2193;47.980;7.660;2022-07-01T06:00:16;1.80;;;0.80;;
4359;SDS011;2193;47.980;7.660;2022-07-01T06:02:41;4.93;;;0.77;;
4359;SDS011;2193;47.980;7.660;2022-07-01T06:05:06;1.40;;;0.90;;
4359;SDS011;2193;47.980;7.660;2022-07-01T06:07:31;2.20;;;0.80;;
4359;SDS011;2193;47.980;7.660;2022-07-01T06:09:57;1.17;;;0.80;;
4359;SDS011;2193;47.980;7.660;2022-07-01T06:12:22;0.97;;;0.90;;
4359;SDS011;2193;47.980;7.660;2022-07-01T06:14:47;1.77;;;1.10;;
4359;SDS011;2193;47.980;7.660;2022-07-01T06:17:13;1.10;;;0.80;;
4359;SDS011;2193;47.980;7.660;2022-07-01T06:19:39;0.77;;;0.77;;
4359;SDS011;2193;47.980;7.660;2022-07-01T06:22:04;1.17;;;0.77;;
4359;SDS011;2193;47.980;7.660;2022-07-01T06:24:29;1.40;;;0.67;;
4359;SDS011;2193;47.980;7.660;2022-07-01T06:26:54;1.33;;;0.70;;
4359;SDS011;2193;47.980;7.660;2022-07-01T06:29:20;1.37;;;0.90;;
4359;SDS011;2193;47.980;7.660;2022-07-01T06:31:45;2.13;;;0.70;;
4359;SDS011;2193;47.980;7.660;2022-07-01T06:34:10;1.63;;;0.70;;
4359;SDS011;2193;47.980;7.660;2022-07-01T06:36:35;4.93;;;0.90;;
4359;SDS011;2193;47.980;7.660;2022-07-01T06:39:00;1.03;;;0.83;;
4359;SDS011;2193;47.980;7.660;2022-07-01T06:41:26;1.30;;;0.87;;
4359;SDS011;2193;47.980;7.660;2022-07-01T06:43:54;0.80;;;0.80;;
4359;SDS011;2193;47.980;7.660;2022-07-01T06:46:20;1.00;;;0.90;;
4359;SDS011;2193;47.980;7.660;2022-07-01T06:48:45;0.97;;;0.97;;
4359;SDS011;2193;47.980;7.660;2022-07-01T06:51:11;2.97;;;1.10;;
4359;SDS011;2193;47.980;7.660;2022-07-01T06:53:36;4.10;;;1.10;;
4359;SDS011;2193;47.980;7.660;2022-07-01T06:56:01;1.60;;;1.10;;
4359;SDS011;2193;47.980;7.660;2022-07-01T06:58:26;1.03;;;0.90;;
4359;SDS011;2193;47.980;7.660;2022-07-01T07:00:51;1.43;;;0.83;;
4359;SDS011;2193;47.980;7.660;2022-07-01T07:03:17;1.33;;;0.90;;
4359;SDS011;2193;47.980;7.660;2022-07-01T07:05:42;3.73;;;1.10;;
4359;SDS011;2193;47.980;7.660;2022-07-01T07:08:07;1.90;;;0.80;;
4359;SDS011;2193;47.980;7.660;2022-07-01T07:10:32;0.80;;;0.80;;
4359;SDS011;2193;47.980;7.660;2022-07-01T07:12:57;1.50;;;1.10;;
4359;SDS011;2193;47.980;7.660;2022-07-01T07:15:23;1.47;;;0.90;;
4359;SDS011;2193;47.980;7.660;2022-07-01T07:17:48;1.10;;;1.00;;
4359;SDS011;2193;47.980;7.660;2022-07-01T07:20:13;2.27;;;1.27;;
4359;SDS011;2193;47.980;7.660;2022-07-01T07:22:38;5.27;;;0.97;;
4359;SDS011;2193;47.980;7.660;2022-07-01T07:25:04;1.10;;;0.97;;
4359;SDS011;2193;47.980;7.660;2022-07-01T07:27:29;0.90;;;0.90;;
4359;SDS011;2193;47.980;7.660;2022-07-01T07:29:54;1.97;;;1.10;;
4359;SDS011;2193;47.980;7.660;2022-07-01T07:32:19;1.00;;;0.80;;
4359;SDS011;2193;47.980;7.660;2022-07-01T07:34:44;4.70;;;0.80;;
4359;SDS011;2193;47.980;7.660;2022-07-01T07:37:10;1.53;;;0.90;;
4359;SDS011;2193;47.980;7.660;2022-07-01T07:39:35;1.23;;;1.13;;
4359;SDS011;2193;47.980;7.660;2022-07-01T07:42:00;4.10;;;0.90;;
4359;SDS011;2193;47.980;7.660;2022-07-01T07:44:26;3.10;;;1.00;;
4359;SDS011;2193;47.980;7.660;2022-07-01T07:46:51;1.23;;;1.10;;
4359;SDS011;2193;47.980;7.660;2022-07-01T07:49:16;1.30;;;1.20;;
4359;SDS011;2193;47.980;7.660;2022-07-01T07:51:41;0.90;;;0.90;;
4359;SDS011;2193;47.980;7.660;2022-07-01T07:54:07;2.30;;;1.07;;
4359;SDS011;2193;47.980;7.660;2022-07-01T07:56:32;2.83;;;1.17;;
4359;SDS011;2193;47.980;7.660;2022-07-01T07:58:57;1.20;;;1.10;;
4359;SDS011;2193;47.980;7.660;2022-07-01T08:01:22;1.17;;;1.07;;
4359;SDS011;2193;47.980;7.660;2022-07-01T08:03:48;1.77;;;1.43;;
4359;SDS011;2193;47.980;7.660;2022-07-01T08:06:13;6.13;;;1.27;;
4359;SDS011;2193;47.980;7.660;2022-07-01T08:08:38;1.20;;;1.10;;
4359;SDS011;2193;47.980;7.660;2022-07-01T08:11:03;1.57;;;1.10;;
4359;SDS011;2193;47.980;7.660;2022-07-01T08:13:28;3.10;;;1.00;;
4359;SDS011;2193;47.980;7.660;2022-07-01T08:15:54;3.17;;;1.20;;
4359;SDS011;2193;47.980;7.660;2022-07-01T08:18:19;0.80;;;0.80;;
4359;SDS011;2193;47.980;7.660;2022-07-01T08:20:44;2.10;;;1.20;;
4359;SDS011;2193;47.980;7.660;2022-07-01T08:23:10;11.00;;;1.80;;
4359;SDS011;2193;47.980;7.660;2022-07-01T08:25:36;3.13;;;1.43;;
4359;SDS011;2193;47.980;7.660;2022-07-01T08:28:01;2.80;;;1.40;;
4359;SDS011;2193;47.980;7.660;2022-07-01T08:30:27;2.30;;;1.30;;
4359;SDS011;2193;47.980;7.660;2022-07-01T08:32:52;2.40;;;1.20;;
4359;SDS011;2193;47.980;7.660;2022-07-01T08:35:17;2.20;;;1.40;;
4359;SDS011;2193;47.980;7.660;2022-07-01T08:37:42;3.47;;;1.50;;
4359;SDS011;2193;47.980;7.660;2022-07-01T08:40:07;1.60;;;1.00;;
4359;SDS011;2193;47.980;7.660;2022-07-01T08:42:33;1.87;;;1.13;;
4359;SDS011;2193;47.980;7.660;2022-07-01T08:44:58;1.47;;;1.37;;
4359;SDS011;2193;47.980;7.660;2022-07-01T08:47:23;1.87;;;1.30;;
4359;SDS011;2193;47.980;7.660;2022-07-01T08:49:48;1.47;;;1.00;;
4359;SDS011;2193;47.980;7.660;2022-07-01T08:52:13;1.10;;;0.83;;
4359;SDS011;2193;47.980;7.660;2022-07-01T08:54:39;2.37;;;1.00;;
4359;SDS011;2193;47.980;7.660;2022-07-01T08:57:05;1.00;;;0.90;;
4359;SDS011;2193;47.980;7.660;2022-07-01T08:59:30;1.10;;;1.00;;
4359;SDS011;2193;47.980;7.660;2022-07-01T09:01:56;2.03;;;1.27;;
4359;SDS011;2193;47.980;7.660;2022-07-01T09:04:22;2.53;;;0.90;;
4359;SDS011;2193;47.980;7.660;2022-07-01T09:06:47;1.00;;;0.80;;
4359;SDS011;2193;47.980;7.660;2022-07-01T09:11:45;1.70;;;1.00;;
4359;SDS011;2193;47.980;7.660;2022-07-01T09:14:11;1.47;;;0.90;;
4359;SDS011;2193;47.980;7.660;2022-07-01T09:16:47;4.33;;;0.90;;
4359;SDS011;2193;47.980;7.660;2022-07-01T09:19:13;1.70;;;1.00;;
4359;SDS011;2193;47.980;7.660;2022-07-01T09:21:39;1.80;;;0.93;;
4359;SDS011;2193;47.980;7.660;2022-07-01T09:24:05;1.63;;;0.90;;
4359;SDS011;2193;47.980;7.660;2022-07-01T09:26:32;1.13;;;1.03;;
4359;SDS011;2193;47.980;7.660;2022-07-01T09:28:57;1.03;;;0.80;;
4359;SDS011;2193;47.980;7.660;2022-07-01T09:31:30;1.00;;;0.90;;
4359;SDS011;2193;47.980;7.660;2022-07-01T09:34:03;1.33;;;0.80;;
4359;SDS011;2193;47.980;7.660;2022-07-01T09:36:28;2.40;;;0.90;;
4359;SDS011;2193;47.980;7.660;2022-07-01T09:38:54;1.37;;;1.20;;
4359;SDS011;2193;47.980;7.660;2022-07-01T09:41:19;1.00;;;0.90;;
4359;SDS011;2193;47.980;7.660;2022-07-01T09:43:47;2.40;;;1.00;;
4359;SDS011;2193;47.980;7.660;2022-07-01T09:46:12;4.00;;;0.93;;
4359;SDS011;2193;47.980;7.660;2022-07-01T09:51:04;1.10;;;0.80;;
4359;SDS011;2193;47.980;7.660;2022-07-01T09:53:30;1.83;;;0.93;;
4359;SDS011;2193;47.980;7.660;2022-07-01T09:55:55;1.23;;;0.97;;
4359;SDS011;2193;47.980;7.660;2022-07-01T09:58:20;1.67;;;0.90;;
4359;SDS011;2193;47.980;7.660;2022-07-01T10:00:46;1.73;;;0.90;;
4359;SDS011;2193;47.980;7.660;2022-07-01T10:03:12;1.93;;;0.80;;
4359;SDS011;2193;47.980;7.660;2022-07-01T10:05:41;0.70;;;0.70;;
4359;SDS011;2193;47.980;7.660;2022-07-01T10:08:10;1.10;;;0.93;;
4359;SDS011;2193;47.980;7.660;2022-07-01T10:13:25;1.07;;;0.97;;
4359;SDS011;2193;47.980;7.660;2022-07-01T10:15:51;5.10;;;0.90;;
4359;SDS011;2193;47.980;7.660;2022-07-01T10:18:21;1.90;;;0.93;;
4359;SDS011;2193;47.980;7.660;2022-07-01T10:20:47;1.17;;;0.70;;
4359;SDS011;2193;47.980;7.660;2022-07-01T10:23:13;2.53;;;0.80;;
4359;SDS011;2193;47.980;7.660;2022-07-01T10:25:48;2.10;;;0.90;;
4359;SDS011;2193;47.980;7.660;2022-07-01T10:30:55;0.80;;;0.80;;
4359;SDS011;2193;47.980;7.660;2022-07-01T10:35:52;1.20;;;0.70;;
4359;SDS011;2193;47.980;7.660;2022-07-01T10:38:17;1.07;;;0.80;;
4359;SDS011;2193;47.980;7.660;2022-07-01T10:40:43;0.80;;;0.60;;
4359;SDS011;2193;47.980;7.660;2022-07-01T10:43:17;0.93;;;0.60;;
4359;SDS011;2193;47.980;7.660;2022-07-01T10:45:56;2.63;;;0.70;;
4359;SDS011;2193;47.980;7.660;2022-07-01T10:48:22;0.90;;;0.77;;
4359;SDS011;2193;47.980;7.660;2022-07-01T10:50:47;2.00;;;0.80;;
4359;SDS011;2193;47.980;7.660;2022-07-01T10:53:13;2.30;;;1.10;;
4359;SDS011;2193;47.980;7.660;2022-07-01T10:55:39;1.43;;;0.90;;
4359;SDS011;2193;47.980;7.660;2022-07-01T10:58:05;1.20;;;0.70;;
4359;SDS011;2193;47.980;7.660;2022-07-01T11:00:31;2.43;;;0.80;;
4359;SDS011;2193;47.980;7.660;2022-07-01T11:03:07;0.90;;;0.70;;
4359;SDS011;2193;47.980;7.660;2022-07-01T11:05:32;1.10;;;1.00;;
4359;SDS011;2193;47.980;7.660;2022-07-01T11:07:59;1.33;;;0.80;;
4359;SDS011;2193;47.980;7.660;2022-07-01T11:10:24;0.90;;;0.70;;
4359;SDS011;2193;47.980;7.660;2022-07-01T11:12:49;1.03;;;0.70;;
4359;SDS011;2193;47.980;7.660;2022-07-01T11:15:16;0.80;;;0.70;;
4359;SDS011;2193;47.980;7.660;2022-07-01T11:17:46;1.00;;;0.80;;
4359;SDS011;2193;47.980;7.660;2022-07-01T11:20:11;2.60;;;0.80;;
4359;SDS011;2193;47.980;7.660;2022-07-01T11:22:37;1.10;;;0.80;;
4359;SDS011;2193;47.980;7.660;2022-07-01T11:25:06;1.70;;;0.80;;
4359;SDS011;2193;47.980;7.660;2022-07-01T11:27:32;2.50;;;0.80;;
4359;SDS011;2193;47.980;7.660;2022-07-01T11:29:59;1.77;;;0.90;;
4359;SDS011;2193;47.980;7.660;2022-07-01T11:34:49;1.60;;;0.70;;
4359;SDS011;2193;47.980;7.660;2022-07-01T11:37:14;1.47;;;0.70;;
4359;SDS011;2193;47.980;7.660;2022-07-01T11:40:10;1.33;;;0.80;;
4359;SDS011;2193;47.980;7.660;2022-07-01T11:42:36;1.50;;;0.70;;
4359;SDS011;2193;47.980;7.660;2022-07-01T11:45:01;1.30;;;0.70;;
4359;SDS011;2193;47.980;7.660;2022-07-01T11:47:27;0.80;;;0.70;;
4359;SDS011;2193;47.980;7.660;2022-07-01T11:49:53;0.77;;;0.70;;
4359;SDS011;2193;47.980;7.660;2022-07-01T11:52:19;0.70;;;0.70;;
4359;SDS011;2193;47.980;7.660;2022-07-01T11:54:45;0.90;;;0.77;;
4359;SDS011;2193;47.980;7.660;2022-07-01T11:57:11;0.80;;;0.60;;
4359;SDS011;2193;47.980;7.660;2022-07-01T11:59:37;3.33;;;0.80;;
4359;SDS011;2193;47.980;7.660;2022-07-01T12:02:03;1.17;;;0.80;;
4359;SDS011;2193;47.980;7.660;2022-07-01T12:04:29;1.93;;;0.70;;
4359;SDS011;2193;47.980;7.660;2022-07-01T12:06:54;1.13;;;0.80;;
4359;SDS011;2193;47.980;7.660;2022-07-01T12:09:19;1.00;;;0.80;;
4359;SDS011;2193;47.980;7.660;2022-07-01T12:11:48;1.37;;;0.67;;
4359;SDS011;2193;47.980;7.660;2022-07-01T12:14:20;1.10;;;0.70;;
4359;SDS011;2193;47.980;7.660;2022-07-01T12:16:46;1.03;;;0.70;;
4359;SDS011;2193;47.980;7.660;2022-07-01T12:19:12;1.30;;;0.90;;
4359;SDS011;2193;47.980;7.660;2022-07-01T12:21:49;1.20;;;0.70;;
4359;SDS011;2193;47.980;7.660;2022-07-01T12:24:14;2.13;;;0.80;;
4359;SDS011;2193;47.980;7.660;2022-07-01T12:27:23;3.83;;;0.77;;
4359;SDS011;2193;47.980;7.660;2022-07-01T12:29:51;1.17;;;0.70;;
4359;SDS011;2193;47.980;7.660;2022-07-01T12:32:16;1.23;;;0.70;;
4359;SDS011;2193;47.980;7.660;2022-07-01T12:34:52;1.20;;;0.90;;
4359;SDS011;2193;47.980;7.660;2022-07-01T12:40:05;0.80;;;0.80;;
4359;SDS011;2193;47.980;7.660;2022-07-01T12:42:32;1.53;;;0.90;;
4359;SDS011;2193;47.980;7.660;2022-07-01T12:45:04;1.63;;;0.87;;
4359;SDS011;2193;47.980;7.660;2022-07-01T12:50:10;0.70;;;0.70;;
4359;SDS011;2193;47.980;7.660;2022-07-01T12:52:36;1.23;;;0.90;;
4359;SDS011;2193;47.980;7.660;2022-07-01T12:55:20;1.80;;;0.83;;
4359;SDS011;2193;47.980;7.660;2022-07-01T12:57:47;0.70;;;0.70;;
4359;SDS011;2193;47.980;7.660;2022-07-01T13:00:12;1.20;;;0.90;;
4359;SDS011;2193;47.980;7.660;2022-07-01T13:02:37;0.90;;;0.70;;
4359;SDS011;2193;47.980;7.660;2022-07-01T13:05:03;1.77;;;0.90;;
4359;SDS011;2193;47.980;7.660;2022-07-01T13:07:28;1.00;;;0.70;;
4359;SDS011;2193;47.980;7.660;2022-07-01T13:09:53;0.77;;;0.77;;
4359;SDS011;2193;47.980;7.660;2022-07-01T13:12:18;1.77;;;0.80;;
4359;SDS011;2193;47.980;7.660;2022-07-01T13:14:44;0.90;;;0.80;;
4359;SDS011;2193;47.980;7.660;2022-07-01T13:17:09;2.07;;;0.77;;
4359;SDS011;2193;47.980;7.660;2022-07-01T13:19:34;0.97;;;0.87;;
4359;SDS011;2193;47.980;7.660;2022-07-01T13:22:00;1.20;;;0.80;;
4359;SDS011;2193;47.980;7.660;2022-07-01T13:24:25;1.00;;;0.70;;
4359;SDS011;2193;47.980;7.660;2022-07-01T13:26:50;1.13;;;0.80;;
4359;SDS011;2193;47.980;7.660;2022-07-01T13:29:16;2.40;;;0.90;;
4359;SDS011;2193;47.980;7.660;2022-07-01T13:31:41;1.00;;;0.87;;
4359;SDS011;2193;47.980;7.660;2022-07-01T13:34:06;1.00;;;0.90;;
4359;SDS011;2193;47.980;7.660;2022-07-01T13:36:31;1.10;;;0.83;;
4359;SDS011;2193;47.980;7.660;2022-07-01T13:38:56;1.80;;;0.83;;
4359;SDS011;2193;47.980;7.660;2022-07-01T13:41:22;1.07;;;0.77;;
4359;SDS011;2193;47.980;7.660;2022-07-01T13:43:48;1.57;;;1.03;;
4359;SDS011;2193;47.980;7.660;2022-07-01T13:46:14;1.17;;;0.70;;
4359;SDS011;2193;47.980;7.660;2022-07-01T13:48:39;4.27;;;0.80;;
4359;SDS011;2193;47.980;7.660;2022-07-01T13:51:04;1.07;;;0.97;;
4359;SDS011;2193;47.980;7.660;2022-07-01T13:53:29;1.10;;;0.77;;
4359;SDS011;2193;47.980;7.660;2022-07-01T13:55:54;0.87;;;0.80;;
4359;SDS011;2193;47.980;7.660;2022-07-01T13:58:20;1.30;;;0.80;;
4359;SDS011;2193;47.980;7.660;2022-07-01T14:00:45;4.00;;;1.00;;
4359;SDS011;2193;47.980;7.660;2022-07-01T14:03:10;2.73;;;1.30;;
4359;SDS011;2193;47.980;7.660;2022-07-01T14:05:35;1.20;;;0.80;;
4359;SDS011;2193;47.980;7.660;2022-07-01T14:08:01;0.83;;;0.70;;
4359;SDS011;2193;47.980;7.660;2022-07-01T14:10:26;4.80;;;0.90;;
4359;SDS011;2193;47.980;7.660;2022-07-01T14:12:52;0.90;;;0.70;;
4359;SDS011;2193;47.980;7.660;2022-07-01T14:15:17;1.00;;;0.90;;
4359;SDS011;2193;47.980;7.660;2022-07-01T14:17:42;0.90;;;0.90;;
4359;SDS011;2193;47.980;7.660;2022-07-01T14:20:09;2.40;;;0.90;;
4359;SDS011;2193;47.980;7.660;2022-07-01T14:22:35;1.20;;;0.97;;
4359;SDS011;2193;47.980;7.660;2022-07-01T14:25:00;1.10;;;0.77;;
4359;SDS011;2193;47.980;7.660;2022-07-01T14:27:26;0.90;;;0.90;;
4359;SDS011;2193;47.980;7.660;2022-07-01T14:29:51;1.20;;;0.80;;
4359;SDS011;2193;47.980;7.660;2022-07-01T14:32:16;2.07;;;1.00;;
4359;SDS011;2193;47.980;7.660;2022-07-01T14:34:41;0.90;;;0.90;;
4359;SDS011;2193;47.980;7.660;2022-07-01T14:37:06;1.70;;;1.00;;
4359;SDS011;2193;47.980;7.660;2022-07-01T14:39:32;1.83;;;0.70;;
4359;SDS011;2193;47.980;7.660;2022-07-01T14:41:57;1.43;;;0.80;;
4359;SDS011;2193;47.980;7.660;2022-07-01T14:44:22;1.00;;;0.90;;
4359;SDS011;2193;47.980;7.660;2022-07-01T14:46:48;1.37;;;1.03;;
4359;SDS011;2193;47.980;7.660;2022-07-01T14:49:13;1.97;;;0.70;;
4359;SDS011;2193;47.980;7.660;2022-07-01T14:51:40;1.27;;;0.90;;
4359;SDS011;2193;47.980;7.660;2022-07-01T14:54:05;1.53;;;0.90;;
4359;SDS011;2193;47.980;7.660;2022-07-01T14:56:31;1.63;;;0.80;;
4359;SDS011;2193;47.980;7.660;2022-07-01T14:58:56;1.23;;;0.90;;
4359;SDS011;2193;47.980;7.660;2022-07-01T15:01:21;2.20;;;0.80;;
4359;SDS011;2193;47.980;7.660;2022-07-01T15:03:46;0.90;;;0.90;;
4359;SDS011;2193;47.980;7.660;2022-07-01T15:06:11;1.87;;;0.90;;
4359;SDS011;2193;47.980;7.660;2022-07-01T15:08:37;0.87;;;0.80;;
4359;SDS011;2193;47.980;7.660;2022-07-01T15:11:02;0.77;;;0.77;;
4359;SDS011;2193;47.980;7.660;2022-07-01T15:13:36;1.20;;;0.87;;
4359;SDS011;2193;47.980;7.660;2022-07-01T15:16:02;1.33;;;1.20;;
4359;SDS011;2193;47.980;7.660;2022-07-01T15:18:28;1.83;;;0.90;;
4359;SDS011;2193;47.980;7.660;2022-07-01T15:20:54;1.00;;;0.70;;
4359;SDS011;2193;47.980;7.660;2022-07-01T15:23:19;1.30;;;1.00;;
4359;SDS011;2193;47.980;7.660;2022-07-01T15:25:45;3.33;;;1.10;;
4359;SDS011;2193;47.980;7.660;2022-07-01T15:28:10;6.50;;;1.20;;